KFKS

Frankfort Dow Memorial Field Airport

Frankfort, Michigan, USA
METAR KFKS 220415Z AUTO 13007KT 10SM CLR M12/M22 A3044 RMK AO2 T11171219
Observed Flight Rules
Jan-22 @ 04:15 UTC (21 minutes ago) Visual Flight Rules
Wind Visibility Clouds
130° at 7 knots 10 miles
  • Clear skies
Temperatures Readings
Current -12°C / 10°F
Dewpoint -22°C / -8°F
Humidity 44%
Altimeter 30.44" Hg
Pressure 1030.81 hPa
Elevation 193
METAR KFKS 220415Z AUTO 13007KT 10SM CLR M12/M22 A3044 RMK AO2 T11171219
Observed Flight Rules
Jan-22 @ 04:15 UTC
(21 minutes ago)
VFR
Wind Visibility
130° at 7 knots 10 miles
Clouds
  • Clear skies
Temperature Dewpoint
-12°C / 10°F -22°C / -8°F
Humidity Altimeter Pressure
44% 30.44" Hg 1030.81 hPa